Time;durP1;ratioP1;P1;durP2;ratioP2;P2;SDS_P1;SDS_P2;PMS_P1;PMS_P2;Temp;Humidity;BMP_temperature;BMP_pressure;BME280_temperature;BME280_humidity;BME280_pressure;Samples;Min_cycle;Max_cycle;Signal;HPM_P1;HPM_P2
2021/05/07 00:00:17;;;;;;;4.90;1.73;;;;;;;5.58;62.25;100869.44;688171;28;1054;-47
2021/05/07 00:00:39;;;;;;;4.23;1.70;;;;;;;5.62;62.13;100865.84;688244;28;991;-46
2021/05/07 00:01:01;;;;;;;4.28;1.80;;;;;;;5.63;62.20;100867.56;688092;28;1238;-46
2021/05/07 00:01:22;;;;;;;4.05;1.67;;;;;;;5.64;62.17;100874.53;688267;28;951;-48
2021/05/07 00:01:42;;;;;;;4.57;1.80;;;;;;;5.62;62.12;100865.84;688220;28;832;-46
2021/05/07 00:02:03;;;;;;;5.47;2.10;;;;;;;5.59;62.26;100865.91;688184;28;847;-46
2021/05/07 00:02:23;;;;;;;4.93;2.10;;;;;;;5.61;62.23;100878.94;687989;28;955;-47
2021/05/07 00:02:44;;;;;;;5.03;2.00;;;;;;;5.60;62.24;100865.00;687961;28;947;-47
2021/05/07 00:03:04;;;;;;;4.65;2.10;;;;;;;5.59;62.27;100860.69;687970;28;840;-46
2021/05/07 00:03:25;;;;;;;4.70;1.90;;;;;;;5.57;62.30;100864.22;688085;28;785;-47
2021/05/07 00:03:45;;;;;;;5.70;2.05;;;;;;;5.59;62.47;100871.13;687888;28;873;-46
2021/05/07 00:04:06;;;;;;;4.70;2.10;;;;;;;5.60;62.29;100867.63;688108;28;785;-47
2021/05/07 00:04:26;;;;;;;4.35;2.00;;;;;;;5.59;62.48;100868.53;688207;28;919;-50
2021/05/07 00:04:46;;;;;;;5.00;2.10;;;;;;;5.62;62.57;100865.00;688168;28;860;-47
2021/05/07 00:05:07;;;;;;;4.83;2.20;;;;;;;5.62;62.19;100868.47;688211;28;884;-46
2021/05/07 00:05:27;;;;;;;5.50;2.30;;;;;;;5.63;62.36;100872.78;688196;28;1194;-47
2021/05/07 00:05:54;;;;;;;5.78;2.15;;;;;;;5.60;62.17;100867.63;687828;28;968;-46
2021/05/07 00:06:14;;;;;;;5.65;2.05;;;;;;;5.60;62.08;100866.75;688017;28;935;-47
2021/05/07 00:06:35;;;;;;;6.32;2.45;;;;;;;5.59;62.09;100868.53;687853;28;915;-47
2021/05/07 00:06:56;;;;;;;5.85;2.25;;;;;;;5.61;62.03;100864.13;687943;28;1051;-46
2021/05/07 00:07:16;;;;;;;7.00;2.33;;;;;;;5.64;61.93;100868.41;687957;28;818;-46
2021/05/07 00:07:36;;;;;;;4.87;2.10;;;;;;;5.62;61.84;100865.84;690328;28;1524;-48
2021/05/07 00:07:59;;;;;;;5.67;2.20;;;;;;;5.65;61.92;100864.94;690942;28;963;-46
2021/05/07 00:08:41;;;;;;;5.75;2.40;;;;;;;5.62;62.03;100870.22;690684;28;1894;-47
2021/05/07 00:09:06;;;;;;;4.13;2.13;;;;;;;5.62;62.01;100868.47;690291;28;1472;-45
2021/05/07 00:09:27;;;;;;;4.63;2.40;;;;;;;5.63;62.01;100872.78;690723;28;1416;-47
2021/05/07 00:09:51;;;;;;;4.88;2.28;;;;;;;5.65;62.08;100868.41;690949;28;848;-46
2021/05/07 00:10:15;;;;;;;5.72;2.25;;;;;;;5.67;61.81;100869.22;690943;28;892;-47
2021/05/07 00:10:35;;;;;;;4.70;2.10;;;;;;;5.68;61.90;100870.97;690750;28;988;-45
2021/05/07 00:10:57;;;;;;;4.80;2.13;;;;;;;5.69;61.98;100866.59;690991;28;1274;-45
2021/05/07 00:11:18;;;;;;;3.75;1.85;;;;;;;5.69;61.93;100867.44;690917;28;939;-46
2021/05/07 00:11:38;;;;;;;4.10;1.87;;;;;;;5.68;61.99;100868.34;691089;28;816;-46
2021/05/07 00:11:58;;;;;;;5.07;2.00;;;;;;;5.70;61.83;100866.53;691071;28;909;-46
2021/05/07 00:12:19;;;;;;;5.27;1.93;;;;;;;5.72;61.90;100872.59;690921;28;975;-47
2021/05/07 00:12:40;;;;;;;4.90;1.80;;;;;;;5.72;61.83;100869.13;691051;28;844;-46
2021/05/07 00:13:00;;;;;;;4.97;2.38;;;;;;;5.74;61.58;100869.09;691057;28;943;-46
2021/05/07 00:13:21;;;;;;;5.13;2.03;;;;;;;5.72;61.91;100870.00;690965;28;1289;-46
2021/05/07 00:13:43;;;;;;;5.07;1.95;;;;;;;5.75;61.71;100868.19;691029;28;970;-46
2021/05/07 00:14:06;;;;;;;4.50;2.00;;;;;;;5.74;61.83;100872.56;690854;28;879;-46
2021/05/07 00:14:27;;;;;;;4.45;1.90;;;;;;;5.71;61.79;100865.66;690971;28;898;-46
2021/05/07 00:14:47;;;;;;;5.07;2.00;;;;;;;5.70;61.69;100868.28;690764;28;1203;-47
2021/05/07 00:15:09;;;;;;;4.57;1.90;;;;;;;5.69;61.75;100870.06;690740;28;919;-48
2021/05/07 00:15:29;;;;;;;4.47;1.70;;;;;;;5.70;61.84;100869.16;690862;28;1095;-46
2021/05/07 00:15:49;;;;;;;5.40;1.80;;;;;;;5.70;61.62;100870.91;690419;28;1546;-46
2021/05/07 00:16:10;;;;;;;4.60;1.90;;;;;;;5.71;61.60;100870.91;690812;28;812;-47
2021/05/07 00:16:33;;;;;;;4.10;1.80;;;;;;;5.72;61.51;100870.00;690982;28;878;-47
2021/05/07 00:16:56;;;;;;;3.13;1.60;;;;;;;5.72;61.58;100867.38;690818;28;921;-45
2021/05/07 00:17:16;;;;;;;4.35;1.70;;;;;;;5.72;61.53;100866.53;690838;28;833;-47
2021/05/07 00:17:37;;;;;;;4.33;1.70;;;;;;;5.72;61.50;100872.59;690984;28;859;-46
2021/05/07 00:17:57;;;;;;;5.10;1.87;;;;;;;5.74;61.33;100869.09;690849;28;871;-46
2021/05/07 00:18:18;;;;;;;5.25;1.83;;;;;;;5.75;61.50;100870.81;690795;28;1011;-46
2021/05/07 00:18:39;;;;;;;4.40;1.88;;;;;;;5.81;61.35;100865.44;690429;28;1023;-47
2021/05/07 00:18:59;;;;;;;4.07;1.70;;;;;;;5.81;60.92;100865.44;690503;28;1434;-49
2021/05/07 00:19:22;;;;;;;4.28;1.70;;;;;;;5.80;60.71;100866.34;690817;28;932;-48
2021/05/07 00:19:42;;;;;;;5.70;1.90;;;;;;;5.82;60.61;100868.03;691054;28;829;-46
2021/05/07 00:20:04;;;;;;;4.30;1.80;;;;;;;5.80;60.90;100866.34;690840;28;1164;-47
2021/05/07 00:20:25;;;;;;;5.10;1.60;;;;;;;5.81;60.63;100863.69;690938;28;1700;-47
2021/05/07 00:20:45;;;;;;;4.60;1.70;;;;;;;5.81;60.86;100865.44;690723;28;1479;-49
2021/05/07 00:21:06;;;;;;;4.20;1.63;;;;;;;5.80;60.75;100875.06;690717;28;1276;-47
2021/05/07 00:21:29;;;;;;;4.60;1.85;;;;;;;5.79;60.76;100873.34;690909;28;1038;-48
2021/05/07 00:21:50;;;;;;;4.55;1.88;;;;;;;5.78;60.65;100873.34;690842;28;971;-46
2021/05/07 00:22:10;;;;;;;3.73;1.50;;;;;;;5.79;60.67;100875.09;690916;28;784;-47
2021/05/07 00:22:31;;;;;;;3.85;1.58;;;;;;;5.80;60.61;100868.97;690822;28;1373;-47
2021/05/07 00:22:54;;;;;;;5.23;1.70;;;;;;;5.81;60.54;100868.91;691015;28;819;-46
2021/05/07 00:23:14;;;;;;;4.60;1.70;;;;;;;5.82;60.72;100872.41;690792;28;1204;-48
2021/05/07 00:23:36;;;;;;;5.00;1.90;;;;;;;5.82;60.63;100873.28;690840;28;1006;-46
2021/05/07 00:23:56;;;;;;;5.03;1.90;;;;;;;5.81;60.44;100871.53;690916;28;922;-47
2021/05/07 00:24:25;;;;;;;4.55;2.00;;;;;;;5.84;60.24;100870.63;690929;28;887;-47
2021/05/07 00:24:46;;;;;;;4.60;1.83;;;;;;;5.82;60.68;100873.28;690925;28;891;-47
2021/05/07 00:25:07;;;;;;;4.47;1.80;;;;;;;5.83;60.67;100868.91;690811;28;858;-47
2021/05/07 00:25:27;;;;;;;6.47;1.80;;;;;;;5.85;60.74;100872.31;690791;28;892;-48
2021/05/07 00:25:49;;;;;;;4.53;1.50;;;;;;;5.83;60.78;100874.13;690949;28;793;-47
2021/05/07 00:26:15;;;;;;;4.03;1.77;;;;;;;5.86;60.79;100868.84;690934;28;926;-47
2021/05/07 00:26:36;;;;;;;3.67;1.80;;;;;;;5.88;60.90;100874.88;691015;28;980;-47
2021/05/07 00:27:00;;;;;;;4.17;1.80;;;;;;;5.88;60.73;100874.88;690853;28;1050;-46
2021/05/07 00:27:20;;;;;;;4.43;1.65;;;;;;;5.88;60.63;100874.88;690350;28;1574;-47
2021/05/07 00:27:40;;;;;;;4.27;1.60;;;;;;;5.89;60.59;100874.00;690937;28;862;-48
2021/05/07 00:28:03;;;;;;;4.10;1.60;;;;;;;5.89;60.71;100877.47;690919;28;995;-46
2021/05/07 00:28:23;;;;;;;3.78;1.67;;;;;;;5.90;61.03;100876.56;690501;28;1956;-46
2021/05/07 00:28:43;;;;;;;4.38;1.70;;;;;;;5.90;60.72;100879.19;690513;28;1231;-47
2021/05/07 00:29:04;;;;;;;4.63;1.70;;;;;;;5.92;60.78;100877.44;690773;28;1457;-47
2021/05/07 00:29:24;;;;;;;3.90;1.97;;;;;;;5.92;60.43;100873.94;690318;28;1503;-47
2021/05/07 00:29:46;;;;;;;4.47;1.90;;;;;;;5.92;60.44;100873.94;690875;28;989;-46
2021/05/07 00:30:07;;;;;;;5.30;1.88;;;;;;;5.89;60.38;100872.25;690871;28;946;-47
2021/05/07 00:30:27;;;;;;;5.72;1.88;;;;;;;5.89;60.57;100874.88;690834;28;975;-46
2021/05/07 00:30:48;;;;;;;4.67;1.70;;;;;;;5.89;60.76;100874.00;690786;28;1261;-47
2021/05/07 00:31:08;;;;;;;4.55;1.85;;;;;;;5.86;60.57;100882.78;690793;28;927;-47
2021/05/07 00:31:28;;;;;;;4.53;1.80;;;;;;;5.88;60.24;100873.16;690680;28;1014;-50
2021/05/07 00:31:49;;;;;;;5.72;1.70;;;;;;;5.92;60.17;100885.28;690871;28;1013;-46
2021/05/07 00:32:09;;;;;;;6.20;1.80;;;;;;;5.93;60.15;100881.78;690869;28;915;-46
2021/05/07 00:32:35;;;;;;;4.27;1.80;;;;;;;5.97;60.12;100879.94;690848;28;850;-47
2021/05/07 00:32:56;;;;;;;5.38;1.83;;;;;;;5.94;60.13;100866.94;690750;28;871;-47
2021/05/07 00:33:16;;;;;;;4.80;1.75;;;;;;;5.98;59.99;100873.81;690763;28;876;-46
2021/05/07 00:33:36;;;;;;;5.10;1.80;;;;;;;5.96;60.11;100878.25;690869;28;1007;-46
2021/05/07 00:34:00;;;;;;;5.20;1.85;;;;;;;5.99;59.98;100870.31;690740;28;1218;-46
2021/05/07 00:34:20;;;;;;;4.45;1.70;;;;;;;5.98;59.82;100873.81;690968;28;857;-47
2021/05/07 00:34:40;;;;;;;4.90;1.60;;;;;;;5.97;59.73;100882.56;690805;28;968;-48
2021/05/07 00:35:00;;;;;;;4.50;1.60;;;;;;;5.94;59.79;100878.25;690772;28;916;-48
2021/05/07 00:35:21;;;;;;;4.23;1.60;;;;;;;5.94;59.82;100882.63;690811;28;942;-49
2021/05/07 00:35:41;;;;;;;3.80;1.48;;;;;;;5.97;59.70;100879.94;690818;28;836;-47
2021/05/07 00:36:02;;;;;;;4.17;1.80;;;;;;;5.97;59.67;100877.34;690843;28;876;-48
2021/05/07 00:36:22;;;;;;;4.40;1.70;;;;;;;6.01;59.34;100871.13;690909;28;856;-47
2021/05/07 00:36:43;;;;;;;4.33;1.70;;;;;;;6.02;59.39;100877.22;690797;28;797;-47
2021/05/07 00:37:06;;;;;;;4.97;1.60;;;;;;;6.03;59.54;100876.34;690838;28;986;-47
2021/05/07 00:37:26;;;;;;;4.55;1.60;;;;;;;6.05;59.45;100878.00;690794;28;1002;-47
2021/05/07 00:37:47;;;;;;;4.33;1.70;;;;;;;6.05;59.28;100878.00;690715;28;875;-47
2021/05/07 00:38:07;;;;;;;4.80;1.60;;;;;;;6.05;59.29;100875.41;690866;28;1007;-49
2021/05/07 00:38:30;;;;;;;4.37;1.50;;;;;;;6.05;59.25;100871.94;690350;28;1575;-46
2021/05/07 00:38:53;;;;;;;4.68;1.80;;;;;;;6.04;59.48;100881.53;689605;28;1313;-47
2021/05/07 00:39:14;;;;;;;3.42;1.52;;;;;;;6.03;59.50;100879.81;690773;28;934;-47
2021/05/07 00:39:37;;;;;;;5.00;2.00;;;;;;;6.05;59.72;100883.25;690665;28;1394;-47
2021/05/07 00:39:57;;;;;;;5.35;1.92;;;;;;;6.03;59.72;100878.97;690840;28;1009;-47
2021/05/07 00:40:23;;;;;;;4.93;1.90;;;;;;;6.08;59.98;100890.19;690867;28;819;-46
2021/05/07 00:40:44;;;;;;;3.75;1.60;;;;;;;6.09;60.13;100876.19;690827;28;818;-46
2021/05/07 00:41:04;;;;;;;4.63;1.73;;;;;;;6.08;59.75;100874.47;690860;28;1347;-47
2021/05/07 00:41:27;;;;;;;5.05;1.80;;;;;;;6.11;59.89;100885.72;690773;28;922;-46
2021/05/07 00:41:47;;;;;;;4.03;1.60;;;;;;;6.14;59.83;100880.44;690638;28;1013;-46
2021/05/07 00:42:09;;;;;;;4.33;1.73;;;;;;;6.11;59.68;100875.25;690877;28;1038;-47
2021/05/07 00:42:29;;;;;;;4.40;1.63;;;;;;;6.12;59.70;100882.22;690790;28;857;-47
2021/05/07 00:42:50;;;;;;;4.27;1.73;;;;;;;6.13;59.86;100878.72;690799;28;1029;-47
2021/05/07 00:43:11;;;;;;;4.45;1.80;;;;;;;6.15;59.91;100882.16;690861;28;868;-47
2021/05/07 00:43:31;;;;;;;5.68;1.92;;;;;;;6.17;59.98;100880.38;690791;28;858;-46
2021/05/07 00:43:53;;;;;;;5.07;1.77;;;;;;;6.21;59.68;100882.91;690453;28;935;-46
2021/05/07 00:44:13;;;;;;;5.53;1.67;;;;;;;6.22;59.72;100882.00;690567;28;926;-47
2021/05/07 00:44:34;;;;;;;5.43;1.80;;;;;;;6.25;59.57;100881.94;687907;28;1288;-46
2021/05/07 00:45:14;;;;;;;4.27;1.60;;;;;;;6.26;59.65;100884.50;687949;28;808;-46
2021/05/07 00:45:35;;;;;;;5.15;1.70;;;;;;;6.23;59.94;100884.63;685104;28;1277;-45
2021/05/07 00:45:55;;;;;;;4.33;1.70;;;;;;;6.24;59.86;100883.69;687817;28;994;-46
2021/05/07 00:46:15;;;;;;;4.10;1.70;;;;;;;6.22;60.11;100889.88;687927;28;959;-46
2021/05/07 00:46:41;;;;;;;4.57;1.80;;;;;;;6.27;59.48;100881.03;690737;28;792;-47
2021/05/07 00:47:05;;;;;;;4.72;1.65;;;;;;;6.26;59.39;100887.13;690593;28;900;-45
2021/05/07 00:47:25;;;;;;;5.13;1.65;;;;;;;6.23;59.78;100879.38;690816;28;847;-46
2021/05/07 00:47:47;;;;;;;4.40;1.60;;;;;;;6.22;59.94;100877.63;690871;28;947;-45
2021/05/07 00:48:16;;;;;;;4.10;1.60;;;;;;;6.28;59.84;100881.88;690720;28;846;-46
2021/05/07 00:48:37;;;;;;;5.93;1.73;;;;;;;6.25;60.16;100887.19;690394;28;852;-45
2021/05/07 00:48:57;;;;;;;6.65;2.00;;;;;;;6.23;60.11;100883.72;690572;28;1432;-45
2021/05/07 00:49:18;;;;;;;4.37;1.80;;;;;;;6.20;60.10;100879.44;690563;28;1499;-47
2021/05/07 00:49:39;;;;;;;5.37;1.90;;;;;;;6.20;60.07;100884.69;690877;28;852;-46
2021/05/07 00:49:59;;;;;;;5.45;2.00;;;;;;;6.17;60.08;100877.75;690785;28;804;-46
2021/05/07 00:50:20;;;;;;;4.20;1.60;;;;;;;6.17;60.14;100885.59;690786;28;891;-46
2021/05/07 00:50:43;;;;;;;4.45;1.75;;;;;;;6.21;60.23;100885.53;690950;28;1015;-45
2021/05/07 00:51:04;;;;;;;3.85;1.80;;;;;;;6.25;59.96;100881.94;690829;28;1317;-45
2021/05/07 00:51:25;;;;;;;4.07;1.80;;;;;;;6.22;60.21;100882.00;690805;28;820;-49
2021/05/07 00:51:45;;;;;;;4.63;1.90;;;;;;;6.21;60.17;100880.31;690812;28;1304;-46
2021/05/07 00:52:05;;;;;;;5.65;1.90;;;;;;;6.21;60.27;100880.31;690843;28;997;-46
2021/05/07 00:52:26;;;;;;;5.37;1.80;;;;;;;6.22;59.95;100887.25;690900;28;911;-45
2021/05/07 00:52:46;;;;;;;5.22;1.67;;;;;;;6.26;59.75;100884.50;690838;28;1054;-46
2021/05/07 00:53:07;;;;;;;3.63;1.50;;;;;;;6.31;59.57;100884.44;690991;28;871;-47
2021/05/07 00:53:28;;;;;;;3.92;1.50;;;;;;;6.31;59.46;100884.44;690842;28;1069;-46
2021/05/07 00:53:51;;;;;;;4.45;1.70;;;;;;;6.28;59.48;100881.88;690799;28;987;-46
2021/05/07 00:54:11;;;;;;;5.20;1.80;;;;;;;6.25;59.71;100881.94;690918;28;1003;-47
2021/05/07 00:54:35;;;;;;;3.88;1.65;;;;;;;6.27;59.85;100882.78;690858;28;923;-47
2021/05/07 00:54:55;;;;;;;4.20;1.65;;;;;;;6.23;60.15;100883.72;690872;28;902;-47
2021/05/07 00:55:15;;;;;;;4.53;1.60;;;;;;;6.22;60.10;100882.00;690844;28;985;-46
2021/05/07 00:55:38;;;;;;;3.13;1.60;;;;;;;6.21;60.08;100880.31;690195;28;1445;-46
2021/05/07 00:55:58;;;;;;;3.60;1.70;;;;;;;6.17;60.21;100885.59;691508;28;867;-47
2021/05/07 00:56:18;;;;;;;4.30;1.80;;;;;;;6.19;60.16;100885.56;691465;28;873;-47
2021/05/07 00:56:39;;;;;;;4.23;1.70;;;;;;;6.17;60.17;100877.75;691340;28;836;-46
2021/05/07 00:57:02;;;;;;;4.63;1.80;;;;;;;6.17;60.13;100885.59;691455;28;865;-47
2021/05/07 00:57:22;;;;;;;4.40;1.80;;;;;;;6.17;60.27;100875.13;691064;28;1400;-49
2021/05/07 00:57:43;;;;;;;4.10;1.70;;;;;;;6.17;60.31;100885.59;691420;28;809;-46
2021/05/07 00:58:04;;;;;;;4.15;1.60;;;;;;;6.18;60.20;100879.47;691468;28;935;-46
2021/05/07 00:58:24;;;;;;;3.80;1.50;;;;;;;6.21;60.14;100882.91;690914;28;1069;-46
2021/05/07 00:58:45;;;;;;;4.80;1.60;;;;;;;6.18;60.36;100886.47;691229;28;875;-47
2021/05/07 00:59:05;;;;;;;4.38;1.80;;;;;;;6.18;60.31;100879.47;691417;28;926;-47
2021/05/07 00:59:28;;;;;;;4.65;1.70;;;;;;;6.22;60.07;100884.63;690931;28;1475;-48
2021/05/07 00:59:49;;;;;;;4.38;1.70;;;;;;;6.22;60.21;100887.25;691240;28;1356;-49
2021/05/07 01:00:10;;;;;;;4.33;1.60;;;;;;;6.24;59.85;100881.09;691373;28;816;-48
2021/05/07 01:00:32;;;;;;;4.95;1.70;;;;;;;6.21;60.03;100875.06;691306;28;851;-50
2021/05/07 01:00:53;;;;;;;5.00;1.70;;;;;;;6.20;60.22;100886.44;691224;28;1423;-49
2021/05/07 01:01:13;;;;;;;4.43;1.70;;;;;;;6.19;60.13;100877.69;691310;28;838;-48
2021/05/07 01:01:33;;;;;;;3.97;1.65;;;;;;;6.18;60.13;100876.84;691343;28;870;-47
2021/05/07 01:01:54;;;;;;;3.43;1.50;;;;;;;6.17;60.25;100880.38;691457;28;842;-47
2021/05/07 01:02:14;;;;;;;4.78;1.70;;;;;;;6.18;60.18;100879.47;691311;28;991;-48
2021/05/07 01:02:35;;;;;;;3.83;1.60;;;;;;;6.20;60.29;100879.44;691278;28;844;-47
2021/05/07 01:02:55;;;;;;;4.50;1.70;;;;;;;6.22;60.38;100877.63;691371;28;805;-47
2021/05/07 01:03:15;;;;;;;4.63;1.60;;;;;;;6.22;60.46;100872.41;691375;28;1002;-46
2021/05/07 01:03:38;;;;;;;4.13;1.60;;;;;;;6.25;60.42;100879.31;691377;28;808;-49
2021/05/07 01:03:59;;;;;;;3.85;1.60;;;;;;;6.26;60.45;100873.19;691312;28;901;-47
2021/05/07 01:04:20;;;;;;;4.10;1.50;;;;;;;6.28;60.16;100879.25;691434;28;1044;-49
2021/05/07 01:04:43;;;;;;;3.72;1.55;;;;;;;6.26;60.22;100875.81;691164;28;868;-48
2021/05/07 01:05:05;;;;;;;3.90;1.63;;;;;;;6.26;60.14;100878.41;691143;28;1360;-48
2021/05/07 01:05:25;;;;;;;3.83;1.70;;;;;;;6.39;59.49;100877.25;690981;28;1484;-49
2021/05/07 01:05:46;;;;;;;4.15;1.70;;;;;;;6.37;59.26;100882.53;691225;28;902;-47
2021/05/07 01:06:06;;;;;;;5.30;1.70;;;;;;;6.38;59.32;100878.16;691390;28;883;-46
2021/05/07 01:06:27;;;;;;;5.03;1.73;;;;;;;6.44;59.03;100879.78;691450;28;862;-47
2021/05/07 01:06:47;;;;;;;3.93;1.70;;;;;;;6.43;59.17;100886.75;691209;28;879;-47
2021/05/07 01:07:08;;;;;;;4.32;1.60;;;;;;;6.40;59.15;100877.22;691134;28;1518;-47
2021/05/07 01:07:28;;;;;;;5.37;1.50;;;;;;;6.37;59.57;100881.66;691236;28;919;-48
2021/05/07 01:07:49;;;;;;;4.63;1.70;;;;;;;6.38;58.98;100883.38;691329;28;939;-46
2021/05/07 01:08:10;;;;;;;3.90;1.40;;;;;;;6.41;58.90;100873.69;691276;28;1902;-49
2021/05/07 01:08:30;;;;;;;4.07;1.70;;;;;;;6.41;58.67;100872.84;691097;28;814;-50
2021/05/07 01:08:50;;;;;;;5.35;1.80;;;;;;;6.41;58.78;100878.06;691126;28;1441;-47
2021/05/07 01:09:11;;;;;;;4.63;1.70;;;;;;;6.41;58.85;100878.06;691427;28;941;-50
2021/05/07 01:09:37;;;;;;;4.83;1.70;;;;;;;6.46;58.95;100876.19;691236;28;955;-46
2021/05/07 01:10:02;;;;;;;4.93;1.70;;;;;;;6.45;58.88;100873.63;690961;28;1487;-48
2021/05/07 01:10:23;;;;;;;4.70;1.70;;;;;;;6.41;58.89;100876.31;691272;28;844;-47
2021/05/07 01:10:46;;;;;;;4.25;1.70;;;;;;;6.41;59.05;100872.84;691199;28;1328;-47
2021/05/07 01:11:07;;;;;;;3.45;1.58;;;;;;;6.42;58.96;100877.16;691143;28;1260;-46
2021/05/07 01:11:27;;;;;;;3.40;1.57;;;;;;;6.40;59.15;100871.09;691341;28;858;-47
2021/05/07 01:11:48;;;;;;;3.47;1.50;;;;;;;6.38;59.06;100878.16;691273;28;1012;-47
2021/05/07 01:12:09;;;;;;;3.43;1.30;;;;;;;6.36;59.30;100874.69;691570;28;1083;-49
2021/05/07 01:12:29;;;;;;;3.25;1.35;;;;;;;6.38;59.22;100878.16;691458;28;898;-50
2021/05/07 01:12:50;;;;;;;3.75;1.65;;;;;;;6.35;59.37;100873.84;691343;28;895;-48
2021/05/07 01:13:11;;;;;;;3.88;1.70;;;;;;;6.33;59.72;100877.38;691220;28;821;-47
2021/05/07 01:13:32;;;;;;;3.37;1.40;;;;;;;6.34;59.80;100874.75;691250;28;908;-48
2021/05/07 01:13:52;;;;;;;4.53;1.55;;;;;;;6.34;59.73;100873.88;691170;28;1020;-48
2021/05/07 01:14:13;;;;;;;5.00;1.60;;;;;;;6.36;59.61;100874.69;691399;28;844;-47
2021/05/07 01:14:33;;;;;;;4.28;1.58;;;;;;;6.36;59.47;100874.69;691411;28;955;-47
2021/05/07 01:15:12;;;;;;;3.33;1.50;;;;;;;6.33;59.35;100874.75;690993;28;1432;-47
2021/05/07 01:15:32;;;;;;;4.60;1.60;;;;;;;6.31;59.18;100860.88;691293;28;873;-50
2021/05/07 01:15:52;;;;;;;4.43;1.57;;;;;;;6.28;59.38;100874.03;691248;28;985;-48
2021/05/07 01:16:15;;;;;;;4.60;1.50;;;;;;;6.34;59.26;100871.25;691406;28;907;-47
2021/05/07 01:16:36;;;;;;;4.32;1.67;;;;;;;6.29;59.42;100871.34;691224;28;999;-47
2021/05/07 01:16:56;;;;;;;3.37;1.63;;;;;;;6.28;59.73;100871.41;691375;28;903;-49
2021/05/07 01:17:16;;;;;;;3.83;1.60;;;;;;;6.33;59.65;100870.41;691268;28;872;-47
2021/05/07 01:17:39;;;;;;;4.93;1.53;;;;;;;6.40;59.26;100871.97;691136;28;999;-47
2021/05/07 01:17:59;;;;;;;4.07;1.52;;;;;;;6.43;59.45;100871.03;691298;28;856;-47
2021/05/07 01:18:26;;;;;;;3.78;1.60;;;;;;;6.44;59.61;100877.16;691379;28;903;-51
2021/05/07 01:18:49;;;;;;;3.83;1.52;;;;;;;6.43;59.54;100878.88;691229;28;1001;-47
2021/05/07 01:19:13;;;;;;;3.85;1.65;;;;;;;6.40;59.73;100871.09;691350;28;840;-50
2021/05/07 01:19:34;;;;;;;4.38;1.60;;;;;;;6.37;59.69;100872.06;690671;28;1321;-47
2021/05/07 01:19:54;;;;;;;4.78;1.65;;;;;;;6.37;59.54;100868.59;691316;28;1030;-49
2021/05/07 01:20:23;;;;;;;4.47;1.60;;;;;;;6.34;59.67;100872.13;691335;28;906;-47
2021/05/07 01:20:43;;;;;;;4.22;1.70;;;;;;;6.33;59.72;100874.75;691332;28;871;-46
2021/05/07 01:21:04;;;;;;;3.43;1.50;;;;;;;6.36;59.87;100874.69;691245;28;1447;-47
2021/05/07 01:21:24;;;;;;;4.20;1.60;;;;;;;6.33;59.86;100874.75;691140;28;809;-47
2021/05/07 01:21:45;;;;;;;3.87;1.70;;;;;;;6.34;59.64;100876.50;691274;28;817;-47
2021/05/07 01:22:05;;;;;;;4.97;1.60;;;;;;;6.31;59.93;100871.34;691178;28;1531;-47
2021/05/07 01:22:25;;;;;;;5.77;1.90;;;;;;;6.36;59.93;100874.69;691243;28;831;-48
2021/05/07 01:22:48;;;;;;;4.07;1.60;;;;;;;6.38;59.73;100879.00;691419;28;864;-46
2021/05/07 01:23:10;;;;;;;4.50;1.80;;;;;;;6.38;59.53;100875.53;691317;28;792;-47
2021/05/07 01:23:30;;;;;;;3.30;1.73;;;;;;;6.38;59.63;100872.91;691155;28;900;-48
2021/05/07 01:23:50;;;;;;;3.30;1.50;;;;;;;6.37;59.68;100874.69;691343;28;887;-47
2021/05/07 01:24:11;;;;;;;3.80;1.53;;;;;;;6.34;59.97;100876.50;691348;28;844;-47
2021/05/07 01:24:32;;;;;;;3.58;1.60;;;;;;;6.37;59.67;100881.66;691262;28;1090;-47
2021/05/07 01:24:52;;;;;;;4.40;1.67;;;;;;;6.36;59.90;100879.94;691247;28;828;-47
2021/05/07 01:25:17;;;;;;;3.67;1.60;;;;;;;6.37;59.86;100882.53;691310;28;787;-47
2021/05/07 01:25:40;;;;;;;3.45;1.45;;;;;;;6.36;59.87;100874.69;691219;28;1034;-47
2021/05/07 01:26:00;;;;;;;3.03;1.50;;;;;;;6.31;60.04;100881.81;691270;28;887;-46
2021/05/07 01:26:21;;;;;;;4.43;1.57;;;;;;;6.36;59.63;100879.94;691223;28;874;-47
2021/05/07 01:26:42;;;;;;;4.53;1.80;;;;;;;6.35;59.58;100876.44;691328;28;828;-47
2021/05/07 01:27:02;;;;;;;4.22;1.65;;;;;;;6.35;59.85;100872.97;691221;28;1012;-46
2021/05/07 01:27:22;;;;;;;4.90;1.80;;;;;;;6.33;59.79;100872.13;691012;28;1518;-47
2021/05/07 01:27:48;;;;;;;4.55;1.90;;;;;;;6.37;59.74;100882.53;691135;28;882;-50
2021/05/07 01:28:11;;;;;;;4.07;1.70;;;;;;;6.35;59.75;100879.06;691259;28;807;-48
2021/05/07 01:28:33;;;;;;;4.53;1.90;;;;;;;6.33;60.03;100874.75;690830;28;1023;-47
2021/05/07 01:28:53;;;;;;;5.93;2.00;;;;;;;6.27;60.09;100877.53;691324;28;961;-49
2021/05/07 01:29:16;;;;;;;4.87;1.80;;;;;;;6.22;60.57;100877.63;691235;28;1452;-46
2021/05/07 01:29:37;;;;;;;5.85;1.80;;;;;;;6.31;59.88;100876.56;691160;28;836;-47
2021/05/07 01:29:57;;;;;;;4.77;1.67;;;;;;;6.33;59.98;100882.63;691252;28;852;-46
2021/05/07 01:30:20;;;;;;;5.25;1.80;;;;;;;6.31;59.74;100884.44;691339;28;891;-47
2021/05/07 01:30:44;;;;;;;4.10;1.95;;;;;;;6.29;60.04;100878.34;691272;28;903;-46
2021/05/07 01:31:05;;;;;;;4.07;1.80;;;;;;;6.28;60.28;100881.88;691327;28;1297;-49
2021/05/07 01:31:25;;;;;;;3.57;1.67;;;;;;;6.26;60.35;100883.66;691380;28;887;-47
2021/05/07 01:31:53;;;;;;;3.27;1.77;;;;;;;6.27;60.13;100882.78;691179;28;889;-50
2021/05/07 01:32:14;;;;;;;4.25;1.65;;;;;;;6.25;60.17;100881.94;691263;28;890;-48
2021/05/07 01:32:35;;;;;;;4.80;1.80;;;;;;;6.27;60.21;100881.03;691295;28;954;-47
2021/05/07 01:32:56;;;;;;;5.35;1.83;;;;;;;6.29;60.33;100878.34;691393;28;939;-48
2021/05/07 01:33:17;;;;;;;5.40;1.83;;;;;;;6.32;60.21;100880.91;691300;28;986;-48
2021/05/07 01:33:38;;;;;;;6.40;2.00;;;;;;;6.31;60.24;100876.56;691266;28;836;-50
2021/05/07 01:34:00;;;;;;;4.63;1.80;;;;;;;6.31;60.27;100885.28;691314;28;1038;-49
2021/05/07 01:34:21;;;;;;;5.95;1.70;;;;;;;6.35;60.49;100878.22;691231;28;965;-49
2021/05/07 01:34:41;;;;;;;5.03;1.95;;;;;;;6.37;60.12;100886.91;691315;28;1169;-48
2021/05/07 01:35:04;;;;;;;4.53;1.97;;;;;;;6.33;59.73;100885.22;691265;28;942;-49
2021/05/07 01:35:33;;;;;;;4.57;1.90;;;;;;;6.27;59.66;100885.41;691171;28;1476;-48
2021/05/07 01:35:53;;;;;;;5.80;1.80;;;;;;;6.28;58.95;100885.34;691168;28;1654;-47
2021/05/07 01:36:14;;;;;;;4.63;1.80;;;;;;;6.26;58.39;100883.66;691207;28;824;-47
2021/05/07 01:36:34;;;;;;;5.20;1.80;;;;;;;6.26;57.96;100878.41;691369;28;912;-47
2021/05/07 01:36:55;;;;;;;4.33;1.70;;;;;;;6.34;56.16;100892.22;691229;28;999;-50
2021/05/07 01:37:15;;;;;;;4.45;1.60;;;;;;;6.24;56.13;100885.47;691369;28;844;-47
2021/05/07 01:37:36;;;;;;;3.77;1.60;;;;;;;6.23;56.35;100886.34;691307;28;826;-50
2021/05/07 01:37:59;;;;;;;3.83;1.60;;;;;;;6.26;55.38;100888.88;691177;28;891;-48
2021/05/07 01:38:20;;;;;;;3.55;1.52;;;;;;;6.18;55.72;100882.06;691326;28;887;-47
2021/05/07 01:38:40;;;;;;;3.95;1.90;;;;;;;6.19;55.75;100882.94;690777;28;895;-48
2021/05/07 01:39:01;;;;;;;3.75;1.80;;;;;;;6.17;56.13;100896.06;691221;28;956;-48
2021/05/07 01:39:21;;;;;;;4.53;1.80;;;;;;;6.17;56.33;100889.97;691347;28;896;-48
2021/05/07 01:39:44;;;;;;;4.30;1.70;;;;;;;6.11;56.08;100896.19;691152;28;915;-48
2021/05/07 01:40:34;;;;;;;4.50;1.90;;;;;;;6.03;56.94;100889.44;691233;28;913;-49
2021/05/07 01:40:54;;;;;;;3.38;1.73;;;;;;;6.00;56.86;100892.97;685186;28;1763;-48
2021/05/07 01:41:15;;;;;;;4.60;1.87;;;;;;;5.98;57.07;100889.50;685463;28;935;-51
2021/05/07 01:41:35;;;;;;;4.40;1.80;;;;;;;5.99;57.36;100886.03;687819;28;1495;-45
2021/05/07 01:41:55;;;;;;;4.83;1.90;;;;;;;5.99;57.15;100886.03;691152;28;1491;-47
2021/05/07 01:42:15;;;;;;;4.03;1.83;;;;;;;5.98;56.30;100892.13;691266;28;936;-47
2021/05/07 01:42:36;;;;;;;3.60;1.50;;;;;;;5.97;55.55;100886.94;690933;28;1495;-46
2021/05/07 01:42:57;;;;;;;3.50;1.40;;;;;;;5.92;55.68;100890.53;691271;28;816;-47
2021/05/07 01:43:18;;;;;;;3.40;1.60;;;;;;;5.89;55.82;100892.31;691255;28;1090;-48
2021/05/07 01:43:38;;;;;;;3.88;1.50;;;;;;;5.88;55.74;100893.19;691341;28;781;-46
2021/05/07 01:43:58;;;;;;;4.60;1.50;;;;;;;5.88;55.81;100887.97;691106;28;1023;-46
2021/05/07 01:44:20;;;;;;;3.93;1.57;;;;;;;5.90;55.72;100894.03;691163;28;1050;-47
2021/05/07 01:44:41;;;;;;;4.45;1.70;;;;;;;5.91;55.68;100887.91;691196;28;1014;-47
2021/05/07 01:45:06;;;;;;;3.97;1.60;;;;;;;5.86;55.77;100889.75;691258;28;777;-48